Terminal Aerodrome Forecast
Issued by NWS Atlanta, GA

Home | Current Version | Previous Version | Text Only | Print | Product List | Glossary On
Versions: 1 2 3 4 5 6 7 8 9 10 11 12 13 14 15 16 17 18 19 20 21 22 23 24
679
FTUS42 KFFC 210351 AAB
TAFCSG
TAF AMD
KCSG 210351Z 2104/2124 VRB03KT P6SM OVC007
     FM210900 21003KT 5SM BR VCSH BKN007 OVC015
     FM211000 20003KT 3SM -TSRA BKN004 OVC015CB
     FM211500 18004KT 5SM BR VCSH BKN007 OVC025
     FM211900 17006KT 5SM BR VCTS BKN012CB=

USA.gov is the U.S. government's official web portal to all federal, state and local government web resources and services.